sensor_id;sensor_type;location;lat;lon;timestamp;pressure;altitude;pressure_sealevel;temperature;humidity
75650;BME280;64245;51.282;22.494;2022-10-16T00:01:44;99527.25;;;9.12;91.52
75650;BME280;64245;51.282;22.494;2022-10-16T00:04:22;99517.47;;;9.11;90.92
75650;BME280;64245;51.282;22.494;2022-10-16T00:06:47;99529.34;;;9.08;91.45
75650;BME280;64245;51.282;22.494;2022-10-16T00:09:13;99516.69;;;8.99;91.62
75650;BME280;64245;51.282;22.494;2022-10-16T00:11:40;99530.19;;;9.09;91.44
75650;BME280;64245;51.282;22.494;2022-10-16T00:14:09;99530.06;;;9.10;90.57
75650;BME280;64245;51.282;22.494;2022-10-16T00:16:38;99533.13;;;9.06;90.83
75650;BME280;64245;51.282;22.494;2022-10-16T00:19:04;99520.47;;;8.96;90.93
75650;BME280;64245;51.282;22.494;2022-10-16T00:21:31;99539.31;;;9.17;90.63
75650;BME280;64245;51.282;22.494;2022-10-16T00:24:02;99535.97;;;9.04;90.98
75650;BME280;64245;51.282;22.494;2022-10-16T00:26:30;99540.63;;;9.02;90.50
75650;BME280;64245;51.282;22.494;2022-10-16T00:28:59;99535.97;;;9.04;90.88
75650;BME280;64245;51.282;22.494;2022-10-16T00:31:28;99538.13;;;8.78;91.29
75650;BME280;64245;51.282;22.494;2022-10-16T00:33:54;99547.59;;;8.93;91.29
75650;BME280;64245;51.282;22.494;2022-10-16T00:36:24;99546.00;;;8.91;90.80
75650;BME280;64245;51.282;22.494;2022-10-16T00:38:55;99545.09;;;8.81;91.52
75650;BME280;64245;51.282;22.494;2022-10-16T00:41:26;99527.50;;;8.77;90.10
75650;BME280;64245;51.282;22.494;2022-10-16T00:46:48;99557.59;;;8.91;90.83
75650;BME280;64245;51.282;22.494;2022-10-16T00:49:17;99562.38;;;8.88;91.29
75650;BME280;64245;51.282;22.494;2022-10-16T00:51:52;99563.03;;;8.80;91.42
75650;BME280;64245;51.282;22.494;2022-10-16T00:54:25;99560.59;;;8.66;92.11
75650;BME280;64245;51.282;22.494;2022-10-16T00:56:52;99572.56;;;8.73;91.94
75650;BME280;64245;51.282;22.494;2022-10-16T00:59:40;99568.09;;;8.62;91.95
75650;BME280;64245;51.282;22.494;2022-10-16T01:02:10;99580.41;;;8.65;92.38
75650;BME280;64245;51.282;22.494;2022-10-16T01:04:47;99574.56;;;8.60;92.08
75650;BME280;64245;51.282;22.494;2022-10-16T01:15:35;99587.63;;;8.42;93.50
75650;BME280;64245;51.282;22.494;2022-10-16T01:21:03;99569.22;;;8.38;93.27
75650;BME280;64245;51.282;22.494;2022-10-16T01:29:33;99555.16;;;8.12;93.14
75650;BME280;64245;51.282;22.494;2022-10-16T01:32:08;99549.31;;;8.18;93.33
75650;BME280;64245;51.282;22.494;2022-10-16T01:34:40;99560.75;;;8.31;93.52
75650;BME280;64245;51.282;22.494;2022-10-16T01:38:07;99555.38;;;8.31;92.64
75650;BME280;64245;51.282;22.494;2022-10-16T01:40:13;99558.59;;;8.36;92.95
75650;BME280;64245;51.282;22.494;2022-10-16T01:42:56;99573.22;;;8.21;93.91
75650;BME280;64245;51.282;22.494;2022-10-16T01:45:24;99568.47;;;8.24;93.53
75650;BME280;64245;51.282;22.494;2022-10-16T01:47:53;99569.56;;;8.11;94.23
75650;BME280;64245;51.282;22.494;2022-10-16T01:50:20;99567.13;;;8.08;93.57
75650;BME280;64245;51.282;22.494;2022-10-16T01:55:33;99572.00;;;8.03;94.30
75650;BME280;64245;51.282;22.494;2022-10-16T01:58:15;99571.00;;;8.15;93.42
75650;BME280;64245;51.282;22.494;2022-10-16T02:00:48;99570.78;;;7.95;94.00
75650;BME280;64245;51.282;22.494;2022-10-16T02:03:18;99562.50;;;7.98;94.47
75650;BME280;64245;51.282;22.494;2022-10-16T02:05:52;99568.81;;;7.97;93.91
75650;BME280;64245;51.282;22.494;2022-10-16T02:08:24;99578.09;;;8.05;93.26
75650;BME280;64245;51.282;22.494;2022-10-16T02:11:03;99565.06;;;8.00;94.10
75650;BME280;64245;51.282;22.494;2022-10-16T02:13:45;99559.06;;;7.96;93.91
75650;BME280;64245;51.282;22.494;2022-10-16T02:16:13;99572.47;;;7.96;94.33
75650;BME280;64245;51.282;22.494;2022-10-16T02:18:44;99565.16;;;7.98;94.14
75650;BME280;64245;51.282;22.494;2022-10-16T02:21:23;99576.13;;;7.95;94.43
75650;BME280;64245;51.282;22.494;2022-10-16T02:24:15;99579.94;;;8.04;93.91
75650;BME280;64245;51.282;22.494;2022-10-16T02:29:30;99584.19;;;8.07;94.30
75650;BME280;64245;51.282;22.494;2022-10-16T02:32:02;99577.09;;;7.94;94.15
75650;BME280;64245;51.282;22.494;2022-10-16T02:34:33;99573.06;;;7.89;93.96
75650;BME280;64245;51.282;22.494;2022-10-16T02:37:04;99576.75;;;7.88;94.32
75650;BME280;64245;51.282;22.494;2022-10-16T02:39:34;99596.63;;;7.85;94.35
75650;BME280;64245;51.282;22.494;2022-10-16T02:42:13;99600.38;;;7.83;94.62
75650;BME280;64245;51.282;22.494;2022-10-16T02:44:42;99603.19;;;7.92;94.69
75650;BME280;64245;51.282;22.494;2022-10-16T02:47:12;99590.13;;;7.77;94.77
75650;BME280;64245;51.282;22.494;2022-10-16T02:49:40;99591.72;;;7.79;94.47
75650;BME280;64245;51.282;22.494;2022-10-16T02:52:10;99589.63;;;7.72;94.67
75650;BME280;64245;51.282;22.494;2022-10-16T02:54:38;99582.44;;;7.72;94.74
75650;BME280;64245;51.282;22.494;2022-10-16T02:57:07;99581.97;;;7.78;95.05
75650;BME280;64245;51.282;22.494;2022-10-16T02:59:36;99590.53;;;7.83;94.94
75650;BME280;64245;51.282;22.494;2022-10-16T03:02:03;99584.03;;;7.75;94.38
75650;BME280;64245;51.282;22.494;2022-10-16T03:04:34;99586.72;;;7.75;95.26
75650;BME280;64245;51.282;22.494;2022-10-16T03:06:59;99581.22;;;7.76;95.00
75650;BME280;64245;51.282;22.494;2022-10-16T03:09:25;99587.59;;;7.86;94.78
75650;BME280;64245;51.282;22.494;2022-10-16T03:11:54;99597.19;;;7.78;95.09
75650;BME280;64245;51.282;22.494;2022-10-16T03:14:20;99598.41;;;7.74;95.60
75650;BME280;64245;51.282;22.494;2022-10-16T03:16:50;99593.19;;;7.83;95.21
75650;BME280;64245;51.282;22.494;2022-10-16T03:19:19;99591.09;;;7.76;94.41
75650;BME280;64245;51.282;22.494;2022-10-16T03:21:49;99603.41;;;7.78;95.43
75650;BME280;64245;51.282;22.494;2022-10-16T03:24:14;99605.25;;;7.78;95.14
75650;BME280;64245;51.282;22.494;2022-10-16T03:26:40;99583.56;;;7.70;95.03
75650;BME280;64245;51.282;22.494;2022-10-16T03:29:06;99591.97;;;7.76;95.15
75650;BME280;64245;51.282;22.494;2022-10-16T03:31:32;99614.38;;;7.75;95.10
75650;BME280;64245;51.282;22.494;2022-10-16T03:34:02;99610.25;;;7.82;95.05
75650;BME280;64245;51.282;22.494;2022-10-16T03:36:28;99571.44;;;7.53;95.43
75650;BME280;64245;51.282;22.494;2022-10-16T03:38:54;99603.03;;;7.72;94.69
75650;BME280;64245;51.282;22.494;2022-10-16T03:41:19;99600.97;;;7.75;95.43
75650;BME280;64245;51.282;22.494;2022-10-16T03:43:45;99621.00;;;7.93;95.13
75650;BME280;64245;51.282;22.494;2022-10-16T03:46:23;99613.69;;;7.84;95.34
75650;BME280;64245;51.282;22.494;2022-10-16T03:48:49;99579.63;;;7.74;95.47
75650;BME280;64245;51.282;22.494;2022-10-16T03:51:15;99603.56;;;7.99;95.33
75650;BME280;64245;51.282;22.494;2022-10-16T03:53:41;99596.63;;;7.96;95.61
75650;BME280;64245;51.282;22.494;2022-10-16T03:56:06;99594.31;;;8.03;94.91
75650;BME280;64245;51.282;22.494;2022-10-16T03:58:33;99609.91;;;8.09;95.30
75650;BME280;64245;51.282;22.494;2022-10-16T04:00:59;99613.19;;;8.13;94.84
75650;BME280;64245;51.282;22.494;2022-10-16T04:03:35;99610.75;;;8.10;95.04
75650;BME280;64245;51.282;22.494;2022-10-16T04:06:01;99607.72;;;8.14;95.20
75650;BME280;64245;51.282;22.494;2022-10-16T04:08:27;99613.97;;;8.26;94.52
75650;BME280;64245;51.282;22.494;2022-10-16T04:10:54;99622.88;;;8.26;94.62
75650;BME280;64245;51.282;22.494;2022-10-16T04:13:34;99627.09;;;8.29;94.68
75650;BME280;64245;51.282;22.494;2022-10-16T04:16:00;99627.63;;;8.34;94.80
75650;BME280;64245;51.282;22.494;2022-10-16T04:18:32;99634.72;;;8.35;94.33
75650;BME280;64245;51.282;22.494;2022-10-16T04:21:03;99633.38;;;8.41;93.93
75650;BME280;64245;51.282;22.494;2022-10-16T04:23:30;99644.94;;;8.52;94.09
75650;BME280;64245;51.282;22.494;2022-10-16T04:25:59;99636.78;;;8.54;93.78
75650;BME280;64245;51.282;22.494;2022-10-16T04:28:27;99633.34;;;8.74;93.17
75650;BME280;64245;51.282;22.494;2022-10-16T04:30:58;99623.22;;;8.78;92.87
75650;BME280;64245;51.282;22.494;2022-10-16T04:33:24;99640.75;;;8.93;92.03
75650;BME280;64245;51.282;22.494;2022-10-16T04:35:57;99638.66;;;8.96;92.38
75650;BME280;64245;51.282;22.494;2022-10-16T04:38:23;99640.75;;;9.04;91.53
75650;BME280;64245;51.282;22.494;2022-10-16T04:40:48;99638.66;;;8.96;92.34
75650;BME280;64245;51.282;22.494;2022-10-16T04:43:14;99644.66;;;9.00;92.07
75650;BME280;64245;51.282;22.494;2022-10-16T04:45:40;99637.19;;;9.04;91.02
75650;BME280;64245;51.282;22.494;2022-10-16T04:48:06;99640.34;;;9.09;91.90
75650;BME280;64245;51.282;22.494;2022-10-16T04:50:32;99646.44;;;9.11;91.45
75650;BME280;64245;51.282;22.494;2022-10-16T04:52:58;99650.53;;;9.26;90.55
75650;BME280;64245;51.282;22.494;2022-10-16T04:55:32;99651.81;;;9.22;91.15
75650;BME280;64245;51.282;22.494;2022-10-16T04:57:58;99658.47;;;9.27;90.56
75650;BME280;64245;51.282;22.494;2022-10-16T05:00:24;99648.94;;;9.34;90.54
75650;BME280;64245;51.282;22.494;2022-10-16T05:02:50;99652.66;;;9.43;90.25
75650;BME280;64245;51.282;22.494;2022-10-16T05:05:16;99656.44;;;9.52;89.26
75650;BME280;64245;51.282;22.494;2022-10-16T05:07:48;99653.13;;;9.59;89.10
75650;BME280;64245;51.282;22.494;2022-10-16T05:10:18;99652.00;;;9.62;88.86
75650;BME280;64245;51.282;22.494;2022-10-16T05:12:47;99651.28;;;9.60;89.38
75650;BME280;64245;51.282;22.494;2022-10-16T05:15:13;99653.50;;;9.55;90.13
75650;BME280;64245;51.282;22.494;2022-10-16T05:17:39;99663.81;;;9.70;89.33
75650;BME280;64245;51.282;22.494;2022-10-16T05:20:05;99660.34;;;9.80;87.87
75650;BME280;64245;51.282;22.494;2022-10-16T05:22:31;99659.38;;;9.81;88.54
75650;BME280;64245;51.282;22.494;2022-10-16T05:24:57;99650.03;;;9.85;87.73
75650;BME280;64245;51.282;22.494;2022-10-16T05:27:23;99650.50;;;9.90;89.23
75650;BME280;64245;51.282;22.494;2022-10-16T05:29:49;99647.28;;;9.96;88.89
75650;BME280;64245;51.282;22.494;2022-10-16T05:32:16;99663.09;;;9.89;89.28
75650;BME280;64245;51.282;22.494;2022-10-16T05:34:46;99662.03;;;10.01;88.75
75650;BME280;64245;51.282;22.494;2022-10-16T05:37:13;99640.66;;;9.79;88.73
75650;BME280;64245;51.282;22.494;2022-10-16T05:39:43;99661.47;;;9.98;88.41
75650;BME280;64245;51.282;22.494;2022-10-16T05:42:10;99672.53;;;10.04;88.27
75650;BME280;64245;51.282;22.494;2022-10-16T05:44:35;99665.00;;;9.98;88.79
75650;BME280;64245;51.282;22.494;2022-10-16T05:47:03;99686.06;;;10.14;88.51
75650;BME280;64245;51.282;22.494;2022-10-16T05:49:38;99680.31;;;10.19;88.41
75650;BME280;64245;51.282;22.494;2022-10-16T05:52:04;99673.47;;;10.15;88.24
75650;BME280;64245;51.282;22.494;2022-10-16T05:54:30;99680.16;;;10.20;88.20
75650;BME280;64245;51.282;22.494;2022-10-16T05:56:56;99674.97;;;10.08;87.62
75650;BME280;64245;51.282;22.494;2022-10-16T05:59:21;99696.47;;;10.19;88.12
75650;BME280;64245;51.282;22.494;2022-10-16T06:01:47;99705.03;;;10.13;87.59
75650;BME280;64245;51.282;22.494;2022-10-16T06:04:13;99707.28;;;10.28;86.84
75650;BME280;64245;51.282;22.494;2022-10-16T06:06:39;99705.56;;;10.27;88.12
75650;BME280;64245;51.282;22.494;2022-10-16T06:09:12;99718.53;;;10.33;86.94
75650;BME280;64245;51.282;22.494;2022-10-16T06:11:38;99714.13;;;10.32;86.97
75650;BME280;64245;51.282;22.494;2022-10-16T06:14:09;99723.81;;;10.45;87.21
75650;BME280;64245;51.282;22.494;2022-10-16T06:16:39;99725.47;;;10.36;87.56
75650;BME280;64245;51.282;22.494;2022-10-16T06:19:05;99699.00;;;10.20;87.35
75650;BME280;64245;51.282;22.494;2022-10-16T06:21:39;99735.53;;;10.34;87.22
75650;BME280;64245;51.282;22.494;2022-10-16T06:24:09;99728.31;;;10.34;86.98
75650;BME280;64245;51.282;22.494;2022-10-16T06:26:37;99742.19;;;10.60;86.69
75650;BME280;64245;51.282;22.494;2022-10-16T06:29:03;99730.06;;;10.45;86.65
75650;BME280;64245;51.282;22.494;2022-10-16T06:31:29;99744.75;;;10.62;85.64
75650;BME280;64245;51.282;22.494;2022-10-16T06:33:57;99735.63;;;10.53;86.71
75650;BME280;64245;51.282;22.494;2022-10-16T06:36:23;99738.72;;;10.79;85.49
75650;BME280;64245;51.282;22.494;2022-10-16T06:38:53;99742.19;;;10.91;85.97
75650;BME280;64245;51.282;22.494;2022-10-16T06:41:22;99741.63;;;10.87;84.67
75650;BME280;64245;51.282;22.494;2022-10-16T06:44:11;99752.72;;;11.03;85.32
75650;BME280;64245;51.282;22.494;2022-10-16T06:46:38;99753.59;;;11.04;85.77
75650;BME280;64245;51.282;22.494;2022-10-16T06:49:06;99755.34;;;11.15;84.52
75650;BME280;64245;51.282;22.494;2022-10-16T06:51:40;99748.25;;;11.14;84.01
75650;BME280;64245;51.282;22.494;2022-10-16T06:54:16;99750.09;;;11.23;84.77
75650;BME280;64245;51.282;22.494;2022-10-16T06:56:51;99743.31;;;11.28;84.29
75650;BME280;64245;51.282;22.494;2022-10-16T06:59:21;99755.69;;;11.40;83.38
75650;BME280;64245;51.282;22.494;2022-10-16T07:01:48;99753.84;;;11.41;82.59
75650;BME280;64245;51.282;22.494;2022-10-16T07:04:36;99753.03;;;11.50;82.52
75650;BME280;64245;51.282;22.494;2022-10-16T07:07:02;99759.13;;;11.52;82.54
75650;BME280;64245;51.282;22.494;2022-10-16T07:09:34;99757.28;;;11.53;82.44
75650;BME280;64245;51.282;22.494;2022-10-16T07:12:09;99763.69;;;11.61;83.06
75650;BME280;64245;51.282;22.494;2022-10-16T07:14:35;99760.72;;;11.64;82.07
75650;BME280;64245;51.282;22.494;2022-10-16T07:17:11;99770.00;;;11.91;81.21
75650;BME280;64245;51.282;22.494;2022-10-16T07:19:38;99777.25;;;11.90;80.83
75650;BME280;64245;51.282;22.494;2022-10-16T07:22:30;99772.97;;;11.78;81.43
75650;BME280;64245;51.282;22.494;2022-10-16T07:25:37;99784.06;;;11.94;81.25
75650;BME280;64245;51.282;22.494;2022-10-16T07:28:17;99750.13;;;11.92;81.30
75650;BME280;64245;51.282;22.494;2022-10-16T07:30:46;99778.22;;;11.80;80.78
75650;BME280;64245;51.282;22.494;2022-10-16T07:33:12;99789.63;;;12.12;81.07
75650;BME280;64245;51.282;22.494;2022-10-16T07:35:38;99781.22;;;12.15;80.78
75650;BME280;64245;51.282;22.494;2022-10-16T07:38:12;99790.19;;;12.25;79.69
75650;BME280;64245;51.282;22.494;2022-10-16T07:40:38;99785.47;;;12.37;80.50
75650;BME280;64245;51.282;22.494;2022-10-16T07:43:05;99796.38;;;12.55;79.63
75650;BME280;64245;51.282;22.494;2022-10-16T07:45:31;99782.63;;;12.48;78.80
75650;BME280;64245;51.282;22.494;2022-10-16T07:47:57;99781.91;;;12.46;80.88
75650;BME280;64245;51.282;22.494;2022-10-16T07:50:23;99784.59;;;12.65;79.76
75650;BME280;64245;51.282;22.494;2022-10-16T07:52:51;99776.22;;;12.39;78.81
75650;BME280;64245;51.282;22.494;2022-10-16T07:55:17;99778.38;;;12.26;79.84
75650;BME280;64245;51.282;22.494;2022-10-16T07:57:44;99756.50;;;12.29;79.99
75650;BME280;64245;51.282;22.494;2022-10-16T08:00:10;99744.84;;;12.00;80.83
75650;BME280;64245;51.282;22.494;2022-10-16T08:02:40;99775.53;;;12.28;80.38
75650;BME280;64245;51.282;22.494;2022-10-16T08:05:06;99772.06;;;12.55;80.20
75650;BME280;64245;51.282;22.494;2022-10-16T08:07:32;99761.22;;;12.74;78.69
75650;BME280;64245;51.282;22.494;2022-10-16T08:10:01;99760.44;;;12.91;77.09
75650;BME280;64245;51.282;22.494;2022-10-16T08:12:33;99754.16;;;13.00;77.58
75650;BME280;64245;51.282;22.494;2022-10-16T08:14:58;99760.94;;;13.14;76.28
75650;BME280;64245;51.282;22.494;2022-10-16T08:17:36;99775.59;;;13.21;78.00
75650;BME280;64245;51.282;22.494;2022-10-16T08:20:30;99769.69;;;13.35;77.44
75650;BME280;64245;51.282;22.494;2022-10-16T08:23:37;99783.91;;;13.37;78.28
75650;BME280;64245;51.282;22.494;2022-10-16T08:26:06;99775.56;;;13.48;75.58
75650;BME280;64245;51.282;22.494;2022-10-16T08:28:34;99770.13;;;13.58;74.68
75650;BME280;64245;51.282;22.494;2022-10-16T08:31:14;99773.94;;;13.65;73.97
75650;BME280;64245;51.282;22.494;2022-10-16T08:33:47;99789.34;;;13.82;73.72
75650;BME280;64245;51.282;22.494;2022-10-16T08:36:14;99784.78;;;13.83;73.85
75650;BME280;64245;51.282;22.494;2022-10-16T08:38:43;99792.28;;;13.89;73.45
75650;BME280;64245;51.282;22.494;2022-10-16T08:44:03;99793.53;;;14.12;72.40
75650;BME280;64245;51.282;22.494;2022-10-16T08:46:50;99787.97;;;14.14;73.05
75650;BME280;64245;51.282;22.494;2022-10-16T08:49:25;99791.50;;;14.32;71.90
75650;BME280;64245;51.282;22.494;2022-10-16T08:51:53;99790.63;;;14.41;71.48
75650;BME280;64245;51.282;22.494;2022-10-16T08:54:37;99805.06;;;14.50;71.15
75650;BME280;64245;51.282;22.494;2022-10-16T08:57:21;99808.09;;;14.47;71.30
75650;BME280;64245;51.282;22.494;2022-10-16T08:59:47;99808.88;;;14.57;71.16
75650;BME280;64245;51.282;22.494;2022-10-16T09:08:14;99818.19;;;15.06;70.73
75650;BME280;64245;51.282;22.494;2022-10-16T09:11:06;99816.22;;;15.16;69.56
75650;BME280;64245;51.282;22.494;2022-10-16T09:16:28;99826.47;;;15.05;68.89
75650;BME280;64245;51.282;22.494;2022-10-16T09:19:16;99827.31;;;15.05;71.07
75650;BME280;64245;51.282;22.494;2022-10-16T09:21:46;99837.97;;;15.25;70.23
75650;BME280;64245;51.282;22.494;2022-10-16T09:24:15;99819.63;;;15.18;68.58
75650;BME280;64245;51.282;22.494;2022-10-16T09:26:47;99821.47;;;15.52;69.45
75650;BME280;64245;51.282;22.494;2022-10-16T09:29:21;99831.03;;;15.56;68.70
75650;BME280;64245;51.282;22.494;2022-10-16T09:31:50;99821.03;;;15.57;67.44
75650;BME280;64245;51.282;22.494;2022-10-16T09:36:57;99827.50;;;15.64;68.38
75650;BME280;64245;51.282;22.494;2022-10-16T09:39:25;99827.75;;;15.52;69.13
75650;BME280;64245;51.282;22.494;2022-10-16T09:42:31;99826.69;;;15.79;67.09
75650;BME280;64245;51.282;22.494;2022-10-16T09:45:21;99828.31;;;16.06;67.66
75650;BME280;64245;51.282;22.494;2022-10-16T09:48:11;99822.84;;;15.90;65.96
75650;BME280;64245;51.282;22.494;2022-10-16T09:50:58;99830.16;;;16.06;65.66
75650;BME280;64245;51.282;22.494;2022-10-16T09:53:43;99835.28;;;16.09;65.86
75650;BME280;64245;51.282;22.494;2022-10-16T09:56:10;99836.41;;;15.90;66.00
75650;BME280;64245;51.282;22.494;2022-10-16T09:58:51;99830.81;;;15.92;66.55
75650;BME280;64245;51.282;22.494;2022-10-16T10:01:21;99829.69;;;16.10;67.09
75650;BME280;64245;51.282;22.494;2022-10-16T10:04:00;99833.97;;;16.29;66.96
75650;BME280;64245;51.282;22.494;2022-10-16T10:06:32;99839.22;;;16.31;68.03
75650;BME280;64245;51.282;22.494;2022-10-16T10:09:22;99835.81;;;16.29;66.57
75650;BME280;64245;51.282;22.494;2022-10-16T10:12:01;99849.06;;;16.15;65.50
75650;BME280;64245;51.282;22.494;2022-10-16T10:19:59;99835.94;;;15.95;65.21
75650;BME280;64245;51.282;22.494;2022-10-16T10:22:41;99847.28;;;15.98;65.99
75650;BME280;64245;51.282;22.494;2022-10-16T10:30:19;99847.28;;;15.90;65.88
75650;BME280;64245;51.282;22.494;2022-10-16T10:35:40;99848.06;;;16.41;67.33
75650;BME280;64245;51.282;22.494;2022-10-16T10:38:38;99846.34;;;16.40;65.26
75650;BME280;64245;51.282;22.494;2022-10-16T10:42:00;99835.66;;;16.30;67.97
75650;BME280;64245;51.282;22.494;2022-10-16T10:44:37;99834.63;;;16.23;65.42
75650;BME280;64245;51.282;22.494;2022-10-16T10:51:03;99824.78;;;17.03;68.28
75650;BME280;64245;51.282;22.494;2022-10-16T10:59:08;99818.97;;;17.14;62.17
75650;BME280;64245;51.282;22.494;2022-10-16T11:01:55;99811.53;;;17.00;62.83
75650;BME280;64245;51.282;22.494;2022-10-16T11:04:36;99810.91;;;17.45;62.57
75650;BME280;64245;51.282;22.494;2022-10-16T11:07:32;99814.28;;;17.47;62.22
75650;BME280;64245;51.282;22.494;2022-10-16T11:10:17;99816.47;;;16.97;62.27
75650;BME280;64245;51.282;22.494;2022-10-16T11:12:59;99809.25;;;17.28;63.00
75650;BME280;64245;51.282;22.494;2022-10-16T11:15:41;99814.28;;;17.47;62.74
75650;BME280;64245;51.282;22.494;2022-10-16T11:18:35;99802.28;;;17.17;61.12
75650;BME280;64245;51.282;22.494;2022-10-16T11:21:08;99823.50;;;17.38;63.13
75650;BME280;64245;51.282;22.494;2022-10-16T11:26:23;99815.97;;;16.93;61.64
75650;BME280;64245;51.282;22.494;2022-10-16T11:28:53;99802.34;;;17.01;63.42
75650;BME280;64245;51.282;22.494;2022-10-16T11:31:45;99812.78;;;17.37;61.84
75650;BME280;64245;51.282;22.494;2022-10-16T11:34:38;99806.72;;;17.26;64.03
75650;BME280;64245;51.282;22.494;2022-10-16T11:37:15;99825.44;;;17.21;63.24
75650;BME280;64245;51.282;22.494;2022-10-16T11:39:44;99815.28;;;16.91;63.86
75650;BME280;64245;51.282;22.494;2022-10-16T11:42:32;99821.56;;;17.08;63.62
75650;BME280;64245;51.282;22.494;2022-10-16T11:48:12;99824.81;;;16.87;63.05
75650;BME280;64245;51.282;22.494;2022-10-16T11:53:48;99811.31;;;17.18;63.05
75650;BME280;64245;51.282;22.494;2022-10-16T11:56:27;99802.63;;;17.14;62.11
75650;BME280;64245;51.282;22.494;2022-10-16T11:59:00;99803.22;;;17.49;63.73
75650;BME280;64245;51.282;22.494;2022-10-16T12:04:47;99803.16;;;17.18;61.44
75650;BME280;64245;51.282;22.494;2022-10-16T12:07:24;99788.34;;;17.29;62.08
75650;BME280;64245;51.282;22.494;2022-10-16T12:09:53;99806.50;;;17.36;62.91
75650;BME280;64245;51.282;22.494;2022-10-16T12:12:28;99804.16;;;17.25;63.38
75650;BME280;64245;51.282;22.494;2022-10-16T12:15:19;99787.56;;;17.51;63.50
75650;BME280;64245;51.282;22.494;2022-10-16T12:17:46;99794.22;;;17.40;65.00
75650;BME280;64245;51.282;22.494;2022-10-16T12:23:18;99787.38;;;17.05;63.64
75650;BME280;64245;51.282;22.494;2022-10-16T12:25:56;99787.84;;;17.17;63.06
75650;BME280;64245;51.282;22.494;2022-10-16T12:28:27;99790.25;;;17.12;63.95
75650;BME280;64245;51.282;22.494;2022-10-16T12:31:05;99772.28;;;17.42;63.32
75650;BME280;64245;51.282;22.494;2022-10-16T12:33:36;99784.69;;;17.44;63.03
75650;BME280;64245;51.282;22.494;2022-10-16T12:36:15;99773.31;;;17.80;61.24
75650;BME280;64245;51.282;22.494;2022-10-16T12:38:50;99776.25;;;18.01;62.10
75650;BME280;64245;51.282;22.494;2022-10-16T12:41:43;99785.13;;;18.26;60.89
75650;BME280;64245;51.282;22.494;2022-10-16T12:44:24;99787.56;;;18.36;61.37
75650;BME280;64245;51.282;22.494;2022-10-16T12:46:51;99787.16;;;18.24;60.68
75650;BME280;64245;51.282;22.494;2022-10-16T12:49:34;99789.22;;;18.68;59.13
75650;BME280;64245;51.282;22.494;2022-10-16T12:52:02;99792.59;;;18.70;59.74
75650;BME280;64245;51.282;22.494;2022-10-16T12:54:37;99798.03;;;19.07;59.43
75650;BME280;64245;51.282;22.494;2022-10-16T13:11:38;99815.16;;;18.41;61.20
75650;BME280;64245;51.282;22.494;2022-10-16T13:17:25;99795.25;;;17.86;61.56
75650;BME280;64245;51.282;22.494;2022-10-16T13:23:15;99810.47;;;18.04;62.89
75650;BME280;64245;51.282;22.494;2022-10-16T13:28:28;99809.56;;;17.80;63.00
75650;BME280;64245;51.282;22.494;2022-10-16T13:30:58;99801.81;;;17.69;65.08
75650;BME280;64245;51.282;22.494;2022-10-16T13:33:36;99808.75;;;17.72;63.78
75650;BME280;64245;51.282;22.494;2022-10-16T13:36:04;99800.88;;;17.38;64.91
75650;BME280;64245;51.282;22.494;2022-10-16T13:38:32;99786.06;;;17.40;65.82
75650;BME280;64245;51.282;22.494;2022-10-16T13:43:39;99798.94;;;17.54;66.09
75650;BME280;64245;51.282;22.494;2022-10-16T13:46:15;99795.59;;;17.44;64.99
75650;BME280;64245;51.282;22.494;2022-10-16T13:48:42;99782.56;;;17.23;66.77
75650;BME280;64245;51.282;22.494;2022-10-16T13:51:16;99784.88;;;17.35;65.01
75650;BME280;64245;51.282;22.494;2022-10-16T13:53:43;99794.41;;;17.39;66.25
75650;BME280;64245;51.282;22.494;2022-10-16T13:56:18;99788.75;;;17.48;64.87
75650;BME280;64245;51.282;22.494;2022-10-16T13:58:46;99795.00;;;17.57;65.10
75650;BME280;64245;51.282;22.494;2022-10-16T14:01:18;99790.03;;;17.30;67.53
75650;BME280;64245;51.282;22.494;2022-10-16T14:03:46;99792.00;;;17.44;67.20
75650;BME280;64245;51.282;22.494;2022-10-16T14:06:18;99789.84;;;17.31;66.05
75650;BME280;64245;51.282;22.494;2022-10-16T14:08:59;99788.09;;;17.38;65.54
75650;BME280;64245;51.282;22.494;2022-10-16T14:11:26;99797.97;;;17.47;65.83
75650;BME280;64245;51.282;22.494;2022-10-16T14:13:53;99783.69;;;17.37;66.48
75650;BME280;64245;51.282;22.494;2022-10-16T14:16:27;99794.00;;;17.11;67.59
75650;BME280;64245;51.282;22.494;2022-10-16T14:19:05;99772.69;;;17.22;64.77
75650;BME280;64245;51.282;22.494;2022-10-16T14:21:33;99793.59;;;17.30;67.88
75650;BME280;64245;51.282;22.494;2022-10-16T14:24:11;99787.50;;;17.20;66.26
75650;BME280;64245;51.282;22.494;2022-10-16T14:26:42;99787.16;;;17.15;65.23
75650;BME280;64245;51.282;22.494;2022-10-16T14:29:17;99790.50;;;17.33;66.27
75650;BME280;64245;51.282;22.494;2022-10-16T14:31:55;99791.91;;;17.13;68.34
75650;BME280;64245;51.282;22.494;2022-10-16T14:34:29;99791.63;;;17.00;68.15
75650;BME280;64245;51.282;22.494;2022-10-16T14:37:50;99777.88;;;16.93;70.19
75650;BME280;64245;51.282;22.494;2022-10-16T14:39:52;99790.94;;;17.06;67.71
75650;BME280;64245;51.282;22.494;2022-10-16T14:42:45;99781.63;;;16.84;67.82
75650;BME280;64245;51.282;22.494;2022-10-16T14:45:11;99790.31;;;16.87;67.29
75650;BME280;64245;51.282;22.494;2022-10-16T14:47:47;99797.28;;;16.82;69.16
75650;BME280;64245;51.282;22.494;2022-10-16T14:50:15;99792.50;;;16.92;68.38
75650;BME280;64245;51.282;22.494;2022-10-16T14:52:51;99782.13;;;16.79;67.32
75650;BME280;64245;51.282;22.494;2022-10-16T14:55:21;99794.38;;;16.75;68.44
75650;BME280;64245;51.282;22.494;2022-10-16T14:57:47;99793.53;;;16.50;69.96
75650;BME280;64245;51.282;22.494;2022-10-16T15:00:23;99800.69;;;16.35;71.25
75650;BME280;64245;51.282;22.494;2022-10-16T15:02:50;99803.41;;;16.35;71.07
75650;BME280;64245;51.282;22.494;2022-10-16T15:05:21;99815.28;;;16.42;69.78
75650;BME280;64245;51.282;22.494;2022-10-16T15:07:50;99815.75;;;16.21;72.24